sensor_id;sensor_type;location;lat;lon;timestamp;pressure;altitude;pressure_sealevel;temperature;humidity
85798;BME280;76244;53.434;14.484;2024-03-22T00:01:28;101882.59;;;9.17;72.47
85798;BME280;76244;53.434;14.484;2024-03-22T00:04:00;101882.79;;;9.18;72.36
85798;BME280;76244;53.434;14.484;2024-03-22T00:06:32;101877.16;;;9.18;72.41
85798;BME280;76244;53.434;14.484;2024-03-22T00:09:04;101879.48;;;9.19;72.33
85798;BME280;76244;53.434;14.484;2024-03-22T00:11:36;101881.02;;;9.18;72.25
85798;BME280;76244;53.434;14.484;2024-03-22T00:14:08;101884.15;;;9.16;72.08
85798;BME280;76244;53.434;14.484;2024-03-22T00:16:40;101885.34;;;9.14;72.27
85798;BME280;76244;53.434;14.484;2024-03-22T00:19:12;101890.05;;;9.12;72.33
85798;BME280;76244;53.434;14.484;2024-03-22T00:21:43;101889.95;;;9.08;72.32
85798;BME280;76244;53.434;14.484;2024-03-22T00:24:15;101886.71;;;9.05;72.11
85798;BME280;76244;53.434;14.484;2024-03-22T00:26:47;101888.46;;;9.04;72.11
85798;BME280;76244;53.434;14.484;2024-03-22T00:29:18;101885.48;;;9.04;71.98
85798;BME280;76244;53.434;14.484;2024-03-22T00:31:50;101878.23;;;9.03;71.95
85798;BME280;76244;53.434;14.484;2024-03-22T00:34:21;101877.11;;;9.00;71.85
85798;BME280;76244;53.434;14.484;2024-03-22T00:36:53;101876.38;;;8.99;71.85
85798;BME280;76244;53.434;14.484;2024-03-22T00:39:26;101877.16;;;8.95;71.75
85798;BME280;76244;53.434;14.484;2024-03-22T00:41:58;101874.26;;;8.91;71.83
85798;BME280;76244;53.434;14.484;2024-03-22T00:44:30;101874.02;;;8.89;72.00
85798;BME280;76244;53.434;14.484;2024-03-22T00:47:01;101873.48;;;8.88;71.97
85798;BME280;76244;53.434;14.484;2024-03-22T00:49:34;101871.66;;;8.86;71.90
85798;BME280;76244;53.434;14.484;2024-03-22T00:52:06;101869.35;;;8.84;72.00
85798;BME280;76244;53.434;14.484;2024-03-22T00:54:38;101868.92;;;8.82;72.06
85798;BME280;76244;53.434;14.484;2024-03-22T00:57:10;101863.77;;;8.78;72.19
85798;BME280;76244;53.434;14.484;2024-03-22T00:59:42;101860.41;;;8.77;72.03
85798;BME280;76244;53.434;14.484;2024-03-22T01:02:16;101853.20;;;8.78;71.93
85798;BME280;76244;53.434;14.484;2024-03-22T01:04:47;101856.20;;;8.78;71.96
85798;BME280;76244;53.434;14.484;2024-03-22T01:07:19;101854.31;;;8.80;71.86
85798;BME280;76244;53.434;14.484;2024-03-22T01:09:51;101847.14;;;8.80;71.78
85798;BME280;76244;53.434;14.484;2024-03-22T01:12:23;101844.98;;;8.79;71.71
85798;BME280;76244;53.434;14.484;2024-03-22T01:14:55;101842.89;;;8.79;71.78
85798;BME280;76244;53.434;14.484;2024-03-22T01:17:27;101836.52;;;8.78;71.61
85798;BME280;76244;53.434;14.484;2024-03-22T01:19:58;101833.31;;;8.75;71.56
85798;BME280;76244;53.434;14.484;2024-03-22T01:22:30;101828.80;;;8.71;71.94
85798;BME280;76244;53.434;14.484;2024-03-22T01:25:06;101822.59;;;8.69;71.81
85798;BME280;76244;53.434;14.484;2024-03-22T01:27:38;101823.11;;;8.68;71.76
85798;BME280;76244;53.434;14.484;2024-03-22T01:30:11;101821.52;;;8.67;71.92
85798;BME280;76244;53.434;14.484;2024-03-22T01:32:42;101819.25;;;8.69;71.82
85798;BME280;76244;53.434;14.484;2024-03-22T01:35:15;101813.35;;;8.71;71.81
85798;BME280;76244;53.434;14.484;2024-03-22T01:37:47;101805.53;;;8.74;71.81
85798;BME280;76244;53.434;14.484;2024-03-22T01:40:19;101807.88;;;8.77;71.88
85798;BME280;76244;53.434;14.484;2024-03-22T01:42:54;101801.77;;;8.79;71.76
85798;BME280;76244;53.434;14.484;2024-03-22T01:45:27;101801.46;;;8.80;71.67
85798;BME280;76244;53.434;14.484;2024-03-22T01:48:03;101794.98;;;8.81;71.76
85798;BME280;76244;53.434;14.484;2024-03-22T01:50:35;101794.27;;;8.80;71.73
85798;BME280;76244;53.434;14.484;2024-03-22T01:53:08;101789.53;;;8.80;71.62
85798;BME280;76244;53.434;14.484;2024-03-22T01:55:39;101788.80;;;8.79;71.55
85798;BME280;76244;53.434;14.484;2024-03-22T01:58:11;101784.89;;;8.78;71.42
85798;BME280;76244;53.434;14.484;2024-03-22T02:00:43;101781.69;;;8.76;71.60
85798;BME280;76244;53.434;14.484;2024-03-22T02:03:16;101781.65;;;8.74;71.39
85798;BME280;76244;53.434;14.484;2024-03-22T02:05:47;101777.27;;;8.75;71.78
85798;BME280;76244;53.434;14.484;2024-03-22T02:08:19;101774.82;;;8.75;71.60
85798;BME280;76244;53.434;14.484;2024-03-22T02:10:51;101771.01;;;8.76;71.60
85798;BME280;76244;53.434;14.484;2024-03-22T02:13:23;101769.96;;;8.78;71.56
85798;BME280;76244;53.434;14.484;2024-03-22T02:15:55;101769.29;;;8.79;71.68
85798;BME280;76244;53.434;14.484;2024-03-22T02:18:27;101764.05;;;8.80;71.71
85798;BME280;76244;53.434;14.484;2024-03-22T02:20:59;101760.22;;;8.83;71.66
85798;BME280;76244;53.434;14.484;2024-03-22T02:23:33;101752.15;;;8.83;71.69
85798;BME280;76244;53.434;14.484;2024-03-22T02:26:06;101749.33;;;8.83;71.65
85798;BME280;76244;53.434;14.484;2024-03-22T02:28:38;101745.08;;;8.80;71.71
85798;BME280;76244;53.434;14.484;2024-03-22T02:31:10;101743.95;;;8.77;71.81
85798;BME280;76244;53.434;14.484;2024-03-22T02:33:42;101738.64;;;8.75;71.99
85798;BME280;76244;53.434;14.484;2024-03-22T02:36:14;101735.83;;;8.75;72.02
85798;BME280;76244;53.434;14.484;2024-03-22T02:38:46;101735.13;;;8.75;71.89
85798;BME280;76244;53.434;14.484;2024-03-22T02:41:18;101729.85;;;8.75;72.03
85798;BME280;76244;53.434;14.484;2024-03-22T02:43:50;101725.34;;;8.77;72.09
85798;BME280;76244;53.434;14.484;2024-03-22T02:46:21;101714.46;;;8.77;72.18
85798;BME280;76244;53.434;14.484;2024-03-22T02:48:53;101703.21;;;8.77;72.07
85798;BME280;76244;53.434;14.484;2024-03-22T02:51:24;101701.43;;;8.76;72.28
85798;BME280;76244;53.434;14.484;2024-03-22T02:53:56;101697.19;;;8.75;72.09
85798;BME280;76244;53.434;14.484;2024-03-22T02:56:29;101698.41;;;8.75;72.39
85798;BME280;76244;53.434;14.484;2024-03-22T02:59:00;101700.27;;;8.72;72.50
85798;BME280;76244;53.434;14.484;2024-03-22T03:01:32;101695.16;;;8.70;72.50
85798;BME280;76244;53.434;14.484;2024-03-22T03:04:03;101693.06;;;8.71;72.40
85798;BME280;76244;53.434;14.484;2024-03-22T03:06:35;101688.00;;;8.72;72.49
85798;BME280;76244;53.434;14.484;2024-03-22T03:09:07;101685.37;;;8.72;72.30
85798;BME280;76244;53.434;14.484;2024-03-22T03:11:43;101681.71;;;8.73;72.31
85798;BME280;76244;53.434;14.484;2024-03-22T03:14:15;101678.02;;;8.74;72.41
85798;BME280;76244;53.434;14.484;2024-03-22T03:16:47;101669.77;;;8.74;72.30
85798;BME280;76244;53.434;14.484;2024-03-22T03:19:18;101663.45;;;8.74;72.45
85798;BME280;76244;53.434;14.484;2024-03-22T03:21:50;101660.13;;;8.75;72.53
85798;BME280;76244;53.434;14.484;2024-03-22T03:24:22;101655.91;;;8.74;72.50
85798;BME280;76244;53.434;14.484;2024-03-22T03:26:53;101648.52;;;8.73;72.39
85798;BME280;76244;53.434;14.484;2024-03-22T03:29:25;101646.35;;;8.71;72.47
85798;BME280;76244;53.434;14.484;2024-03-22T03:31:56;101646.13;;;8.69;72.51
85798;BME280;76244;53.434;14.484;2024-03-22T03:34:28;101641.94;;;8.70;72.61
85798;BME280;76244;53.434;14.484;2024-03-22T03:37:00;101640.74;;;8.71;72.55
85798;BME280;76244;53.434;14.484;2024-03-22T03:39:31;101632.69;;;8.72;72.71
85798;BME280;76244;53.434;14.484;2024-03-22T03:42:03;101629.74;;;8.74;72.73
85798;BME280;76244;53.434;14.484;2024-03-22T03:44:35;101626.63;;;8.76;72.72
85798;BME280;76244;53.434;14.484;2024-03-22T03:47:07;101629.61;;;8.76;72.77
85798;BME280;76244;53.434;14.484;2024-03-22T03:49:39;101618.16;;;8.75;72.73
85798;BME280;76244;53.434;14.484;2024-03-22T03:52:11;101614.82;;;8.74;72.58
85798;BME280;76244;53.434;14.484;2024-03-22T03:54:42;101616.18;;;8.72;72.92
85798;BME280;76244;53.434;14.484;2024-03-22T03:57:15;101611.75;;;8.71;73.19
85798;BME280;76244;53.434;14.484;2024-03-22T03:59:46;101609.48;;;8.71;72.89
85798;BME280;76244;53.434;14.484;2024-03-22T04:02:18;101606.38;;;8.73;72.86
85798;BME280;76244;53.434;14.484;2024-03-22T04:04:53;101605.86;;;8.75;72.86
85798;BME280;76244;53.434;14.484;2024-03-22T04:07:24;101606.05;;;8.75;72.90
85798;BME280;76244;53.434;14.484;2024-03-22T04:09:56;101602.50;;;8.73;72.94
85798;BME280;76244;53.434;14.484;2024-03-22T04:12:30;101600.01;;;8.72;73.11
85798;BME280;76244;53.434;14.484;2024-03-22T04:15:03;101601.73;;;8.70;73.06
85798;BME280;76244;53.434;14.484;2024-03-22T04:17:34;101598.66;;;8.66;73.24
85798;BME280;76244;53.434;14.484;2024-03-22T04:20:08;101591.75;;;8.63;73.27
85798;BME280;76244;53.434;14.484;2024-03-22T04:22:41;101586.45;;;8.62;73.27
85798;BME280;76244;53.434;14.484;2024-03-22T04:25:13;101588.21;;;8.62;73.29
85798;BME280;76244;53.434;14.484;2024-03-22T04:27:45;101590.36;;;8.63;73.47
85798;BME280;76244;53.434;14.484;2024-03-22T04:30:17;101588.59;;;8.63;73.45
85798;BME280;76244;53.434;14.484;2024-03-22T04:32:48;101589.69;;;8.65;73.61
85798;BME280;76244;53.434;14.484;2024-03-22T04:35:20;101585.70;;;8.68;73.62
85798;BME280;76244;53.434;14.484;2024-03-22T04:37:52;101576.41;;;8.69;73.59
85798;BME280;76244;53.434;14.484;2024-03-22T04:40:25;101563.06;;;8.69;73.43
85798;BME280;76244;53.434;14.484;2024-03-22T04:43:00;101558.67;;;8.68;73.62
85798;BME280;76244;53.434;14.484;2024-03-22T04:45:32;101553.73;;;8.67;73.67
85798;BME280;76244;53.434;14.484;2024-03-22T04:48:05;101548.42;;;8.65;73.78
85798;BME280;76244;53.434;14.484;2024-03-22T04:50:37;101542.83;;;8.66;73.87
85798;BME280;76244;53.434;14.484;2024-03-22T04:53:09;101545.85;;;8.68;73.68
85798;BME280;76244;53.434;14.484;2024-03-22T04:55:42;101540.46;;;8.70;73.74
85798;BME280;76244;53.434;14.484;2024-03-22T04:58:16;101545.79;;;8.73;73.84
85798;BME280;76244;53.434;14.484;2024-03-22T05:00:49;101547.27;;;8.76;73.76
85798;BME280;76244;53.434;14.484;2024-03-22T05:03:20;101543.10;;;8.80;73.77
85798;BME280;76244;53.434;14.484;2024-03-22T05:05:52;101542.44;;;8.82;73.73
85798;BME280;76244;53.434;14.484;2024-03-22T05:08:25;101541.75;;;8.83;73.74
85798;BME280;76244;53.434;14.484;2024-03-22T05:10:57;101540.67;;;8.81;73.73
85798;BME280;76244;53.434;14.484;2024-03-22T05:13:29;101536.25;;;8.80;73.75
85798;BME280;76244;53.434;14.484;2024-03-22T05:16:01;101534.29;;;8.79;73.90
85798;BME280;76244;53.434;14.484;2024-03-22T05:18:33;101528.32;;;8.79;73.89
85798;BME280;76244;53.434;14.484;2024-03-22T05:21:05;101523.27;;;8.80;73.77
85798;BME280;76244;53.434;14.484;2024-03-22T05:23:37;101520.48;;;8.82;73.81
85798;BME280;76244;53.434;14.484;2024-03-22T05:26:09;101516.83;;;8.84;73.83
85798;BME280;76244;53.434;14.484;2024-03-22T05:28:40;101507.00;;;8.84;73.85
85798;BME280;76244;53.434;14.484;2024-03-22T05:31:12;101497.91;;;8.86;73.87
85798;BME280;76244;53.434;14.484;2024-03-22T05:33:44;101491.95;;;8.87;73.84
85798;BME280;76244;53.434;14.484;2024-03-22T05:36:17;101489.15;;;8.87;73.89
85798;BME280;76244;53.434;14.484;2024-03-22T05:38:48;101482.63;;;8.87;73.89
85798;BME280;76244;53.434;14.484;2024-03-22T05:41:20;101480.92;;;8.89;73.99
85798;BME280;76244;53.434;14.484;2024-03-22T05:43:51;101474.47;;;8.91;73.94
85798;BME280;76244;53.434;14.484;2024-03-22T05:46:23;101473.10;;;8.93;73.79
85798;BME280;76244;53.434;14.484;2024-03-22T05:48:55;101467.02;;;8.98;73.97
85798;BME280;76244;53.434;14.484;2024-03-22T05:51:27;101463.54;;;9.00;73.92
85798;BME280;76244;53.434;14.484;2024-03-22T05:54:00;101466.22;;;9.01;73.98
85798;BME280;76244;53.434;14.484;2024-03-22T05:56:33;101463.05;;;9.02;74.03
85798;BME280;76244;53.434;14.484;2024-03-22T05:59:05;101455.67;;;9.01;73.95
85798;BME280;76244;53.434;14.484;2024-03-22T06:01:38;101449.34;;;9.01;73.93
85798;BME280;76244;53.434;14.484;2024-03-22T06:04:10;101442.13;;;9.00;73.97
85798;BME280;76244;53.434;14.484;2024-03-22T06:06:42;101430.55;;;9.01;73.95
85798;BME280;76244;53.434;14.484;2024-03-22T06:09:16;101423.55;;;9.03;73.84
85798;BME280;76244;53.434;14.484;2024-03-22T06:11:55;101416.01;;;9.03;74.08
85798;BME280;76244;53.434;14.484;2024-03-22T06:14:26;101422.17;;;9.04;74.00
85798;BME280;76244;53.434;14.484;2024-03-22T06:17:01;101419.86;;;9.03;73.95
85798;BME280;76244;53.434;14.484;2024-03-22T06:19:34;101424.25;;;9.03;74.06
85798;BME280;76244;53.434;14.484;2024-03-22T06:22:06;101420.57;;;9.03;74.02
85798;BME280;76244;53.434;14.484;2024-03-22T06:24:39;101424.81;;;9.04;74.15
85798;BME280;76244;53.434;14.484;2024-03-22T06:27:11;101421.43;;;9.03;73.99
85798;BME280;76244;53.434;14.484;2024-03-22T06:29:44;101416.36;;;9.03;74.10
85798;BME280;76244;53.434;14.484;2024-03-22T06:32:16;101416.20;;;9.04;74.27
85798;BME280;76244;53.434;14.484;2024-03-22T06:34:48;101415.51;;;9.05;74.19
85798;BME280;76244;53.434;14.484;2024-03-22T06:37:20;101413.75;;;9.05;74.36
85798;BME280;76244;53.434;14.484;2024-03-22T06:39:51;101411.48;;;9.07;74.23
85798;BME280;76244;53.434;14.484;2024-03-22T06:42:23;101413.10;;;9.10;74.42
85798;BME280;76244;53.434;14.484;2024-03-22T06:44:54;101409.42;;;9.10;74.47
85798;BME280;76244;53.434;14.484;2024-03-22T06:47:26;101411.88;;;9.10;74.34
85798;BME280;76244;53.434;14.484;2024-03-22T06:49:58;101407.84;;;9.10;74.44
85798;BME280;76244;53.434;14.484;2024-03-22T06:52:31;101403.84;;;9.12;74.52
85798;BME280;76244;53.434;14.484;2024-03-22T06:55:03;101395.42;;;9.14;74.28
85798;BME280;76244;53.434;14.484;2024-03-22T06:57:34;101391.92;;;9.14;74.40
85798;BME280;76244;53.434;14.484;2024-03-22T07:00:08;101390.00;;;9.15;74.38
85798;BME280;76244;53.434;14.484;2024-03-22T07:02:41;101390.87;;;9.14;74.56
85798;BME280;76244;53.434;14.484;2024-03-22T07:05:12;101398.27;;;9.15;74.65
85798;BME280;76244;53.434;14.484;2024-03-22T07:07:44;101399.86;;;9.16;74.52
85798;BME280;76244;53.434;14.484;2024-03-22T07:10:16;101401.48;;;9.18;74.60
85798;BME280;76244;53.434;14.484;2024-03-22T07:12:48;101399.20;;;9.20;74.46
85798;BME280;76244;53.434;14.484;2024-03-22T07:15:22;101398.20;;;9.23;74.44
85798;BME280;76244;53.434;14.484;2024-03-22T07:17:54;101398.42;;;9.26;74.45
85798;BME280;76244;53.434;14.484;2024-03-22T07:20:26;101395.86;;;9.30;74.32
85798;BME280;76244;53.434;14.484;2024-03-22T07:22:58;101394.31;;;9.33;74.29
85798;BME280;76244;53.434;14.484;2024-03-22T07:25:30;101392.44;;;9.36;74.26
85798;BME280;76244;53.434;14.484;2024-03-22T07:28:02;101396.48;;;9.37;74.23
85798;BME280;76244;53.434;14.484;2024-03-22T07:30:34;101389.98;;;9.38;74.41
85798;BME280;76244;53.434;14.484;2024-03-22T07:33:10;101389.85;;;9.39;74.19
85798;BME280;76244;53.434;14.484;2024-03-22T07:35:43;101389.33;;;9.40;74.33
85798;BME280;76244;53.434;14.484;2024-03-22T07:38:16;101391.45;;;9.42;74.41
85798;BME280;76244;53.434;14.484;2024-03-22T07:40:48;101386.92;;;9.45;74.17
85798;BME280;76244;53.434;14.484;2024-03-22T07:43:19;101381.88;;;9.48;74.41
85798;BME280;76244;53.434;14.484;2024-03-22T07:45:51;101379.80;;;9.51;74.24
85798;BME280;76244;53.434;14.484;2024-03-22T07:48:23;101373.88;;;9.53;74.19
85798;BME280;76244;53.434;14.484;2024-03-22T07:50:58;101366.84;;;9.55;74.09
85798;BME280;76244;53.434;14.484;2024-03-22T07:53:31;101367.55;;;9.56;74.43
85798;BME280;76244;53.434;14.484;2024-03-22T07:56:05;101363.68;;;9.55;74.41
85798;BME280;76244;53.434;14.484;2024-03-22T07:58:37;101361.91;;;9.55;74.39
85798;BME280;76244;53.434;14.484;2024-03-22T08:01:09;101352.46;;;9.57;74.55
85798;BME280;76244;53.434;14.484;2024-03-22T08:03:41;101346.50;;;9.59;74.57
85798;BME280;76244;53.434;14.484;2024-03-22T08:06:13;101338.98;;;9.62;74.46
85798;BME280;76244;53.434;14.484;2024-03-22T08:08:45;101339.89;;;9.64;74.42
85798;BME280;76244;53.434;14.484;2024-03-22T08:11:16;101342.00;;;9.64;74.51
85798;BME280;76244;53.434;14.484;2024-03-22T08:13:48;101339.52;;;9.63;74.51
85798;BME280;76244;53.434;14.484;2024-03-22T08:16:20;101343.02;;;9.62;74.43
85798;BME280;76244;53.434;14.484;2024-03-22T08:18:52;101331.41;;;9.62;74.52
85798;BME280;76244;53.434;14.484;2024-03-22T08:21:25;101328.77;;;9.60;74.38
85798;BME280;76244;53.434;14.484;2024-03-22T08:23:57;101328.61;;;9.62;74.27
85798;BME280;76244;53.434;14.484;2024-03-22T08:26:29;101316.85;;;9.63;74.44
85798;BME280;76244;53.434;14.484;2024-03-22T08:29:00;101315.09;;;9.64;74.45
85798;BME280;76244;53.434;14.484;2024-03-22T08:31:32;101317.05;;;9.66;74.46
85798;BME280;76244;53.434;14.484;2024-03-22T08:34:04;101310.56;;;9.67;74.51
85798;BME280;76244;53.434;14.484;2024-03-22T08:36:39;101311.81;;;9.69;74.29
85798;BME280;76244;53.434;14.484;2024-03-22T08:39:10;101318.17;;;9.71;74.30
85798;BME280;76244;53.434;14.484;2024-03-22T08:41:42;101311.66;;;9.72;74.35
85798;BME280;76244;53.434;14.484;2024-03-22T08:44:15;101298.30;;;9.72;74.44
85798;BME280;76244;53.434;14.484;2024-03-22T08:46:46;101288.84;;;9.74;74.33
85798;BME280;76244;53.434;14.484;2024-03-22T08:49:18;101277.79;;;9.77;74.42
85798;BME280;76244;53.434;14.484;2024-03-22T08:51:52;101273.96;;;9.82;74.41
85798;BME280;76244;53.434;14.484;2024-03-22T08:54:24;101278.23;;;9.86;74.42
85798;BME280;76244;53.434;14.484;2024-03-22T08:56:56;101270.89;;;9.90;74.31
85798;BME280;76244;53.434;14.484;2024-03-22T08:59:28;101265.98;;;9.93;74.16
85798;BME280;76244;53.434;14.484;2024-03-22T09:01:59;101264.96;;;9.94;74.35
85798;BME280;76244;53.434;14.484;2024-03-22T09:04:31;101260.22;;;9.95;74.17
85798;BME280;76244;53.434;14.484;2024-03-22T09:07:03;101259.17;;;9.96;74.18
85798;BME280;76244;53.434;14.484;2024-03-22T09:09:35;101256.02;;;9.98;74.07
85798;BME280;76244;53.434;14.484;2024-03-22T09:12:08;101255.70;;;10.02;74.09
85798;BME280;76244;53.434;14.484;2024-03-22T09:14:40;101253.44;;;10.04;73.91
85798;BME280;76244;53.434;14.484;2024-03-22T09:17:13;101244.85;;;10.07;73.87
85798;BME280;76244;53.434;14.484;2024-03-22T09:19:44;101234.66;;;10.10;73.88
85798;BME280;76244;53.434;14.484;2024-03-22T09:22:16;101229.23;;;10.12;73.82
85798;BME280;76244;53.434;14.484;2024-03-22T09:24:48;101221.31;;;10.12;73.68
85798;BME280;76244;53.434;14.484;2024-03-22T09:27:20;101210.93;;;10.12;73.86
85798;BME280;76244;53.434;14.484;2024-03-22T09:29:51;101217.80;;;10.12;73.78
85798;BME280;76244;53.434;14.484;2024-03-22T09:32:24;101222.88;;;10.10;73.81
85798;BME280;76244;53.434;14.484;2024-03-22T09:34:57;101225.70;;;10.11;73.89
85798;BME280;76244;53.434;14.484;2024-03-22T09:37:29;101225.90;;;10.13;73.88
85798;BME280;76244;53.434;14.484;2024-03-22T09:40:00;101227.33;;;10.16;73.80
85798;BME280;76244;53.434;14.484;2024-03-22T09:42:39;101220.85;;;10.20;73.91
85798;BME280;76244;53.434;14.484;2024-03-22T09:45:12;101213.48;;;10.22;73.78
85798;BME280;76244;53.434;14.484;2024-03-22T09:47:44;101208.91;;;10.23;73.66
85798;BME280;76244;53.434;14.484;2024-03-22T09:50:17;101213.66;;;10.24;73.90
85798;BME280;76244;53.434;14.484;2024-03-22T09:52:49;101218.48;;;10.26;73.95
85798;BME280;76244;53.434;14.484;2024-03-22T09:55:24;101217.26;;;10.28;73.77
85798;BME280;76244;53.434;14.484;2024-03-22T09:57:56;101220.45;;;10.31;73.67
85798;BME280;76244;53.434;14.484;2024-03-22T10:00:28;101217.66;;;10.34;73.89
85798;BME280;76244;53.434;14.484;2024-03-22T10:03:02;101212.77;;;10.39;73.79
85798;BME280;76244;53.434;14.484;2024-03-22T10:05:35;101206.29;;;10.43;73.74
85798;BME280;76244;53.434;14.484;2024-03-22T10:08:08;101202.80;;;10.48;73.75
85798;BME280;76244;53.434;14.484;2024-03-22T10:10:39;101200.02;;;10.53;73.73
85798;BME280;76244;53.434;14.484;2024-03-22T10:13:13;101194.75;;;10.56;73.76
85798;BME280;76244;53.434;14.484;2024-03-22T10:15:47;101189.13;;;10.58;73.71
85798;BME280;76244;53.434;14.484;2024-03-22T10:18:19;101187.38;;;10.61;73.65
85798;BME280;76244;53.434;14.484;2024-03-22T10:21:01;101181.77;;;10.64;73.53
85798;BME280;76244;53.434;14.484;2024-03-22T10:23:34;101178.98;;;10.70;73.31
85798;BME280;76244;53.434;14.484;2024-03-22T10:26:06;101167.91;;;10.74;73.28
85798;BME280;76244;53.434;14.484;2024-03-22T10:28:45;101160.88;;;10.78;72.93
85798;BME280;76244;53.434;14.484;2024-03-22T10:31:18;101159.67;;;10.82;72.96
85798;BME280;76244;53.434;14.484;2024-03-22T10:33:53;101159.69;;;10.86;72.91
85798;BME280;76244;53.434;14.484;2024-03-22T10:36:28;101160.77;;;10.89;72.97
85798;BME280;76244;53.434;14.484;2024-03-22T10:39:02;101162.89;;;10.91;72.74
85798;BME280;76244;53.434;14.484;2024-03-22T10:41:35;101154.77;;;10.91;72.45
85798;BME280;76244;53.434;14.484;2024-03-22T10:44:07;101159.00;;;10.91;72.38
85798;BME280;76244;53.434;14.484;2024-03-22T10:46:45;101155.13;;;10.93;72.42
85798;BME280;76244;53.434;14.484;2024-03-22T10:49:19;101147.05;;;10.95;72.13
85798;BME280;76244;53.434;14.484;2024-03-22T10:51:53;101144.78;;;11.00;72.05
85798;BME280;76244;53.434;14.484;2024-03-22T10:54:28;101131.57;;;11.04;72.06
85798;BME280;76244;53.434;14.484;2024-03-22T10:57:02;101123.14;;;11.10;72.15
85798;BME280;76244;53.434;14.484;2024-03-22T10:59:36;101117.50;;;11.15;72.21
85798;BME280;76244;53.434;14.484;2024-03-22T11:02:11;101117.17;;;11.19;72.07
85798;BME280;76244;53.434;14.484;2024-03-22T11:04:44;101113.83;;;11.23;72.12
85798;BME280;76244;53.434;14.484;2024-03-22T11:07:24;101110.49;;;11.26;71.76
85798;BME280;76244;53.434;14.484;2024-03-22T11:10:02;101104.85;;;11.31;71.97
85798;BME280;76244;53.434;14.484;2024-03-22T11:12:38;101105.05;;;11.36;71.83
85798;BME280;76244;53.434;14.484;2024-03-22T11:15:11;101098.36;;;11.42;71.33
85798;BME280;76244;53.434;14.484;2024-03-22T11:17:43;101099.78;;;11.49;71.36
85798;BME280;76244;53.434;14.484;2024-03-22T11:20:15;101091.67;;;11.53;70.97
85798;BME280;76244;53.434;14.484;2024-03-22T11:22:47;101083.55;;;11.57;71.01
85798;BME280;76244;53.434;14.484;2024-03-22T11:25:19;101072.98;;;11.61;70.89
85798;BME280;76244;53.434;14.484;2024-03-22T11:27:50;101071.03;;;11.63;70.38
85798;BME280;76244;53.434;14.484;2024-03-22T11:30:25;101072.09;;;11.65;70.58
85798;BME280;76244;53.434;14.484;2024-03-22T11:32:57;101065.38;;;11.67;70.25
85798;BME280;76244;53.434;14.484;2024-03-22T11:35:29;101058.50;;;11.67;69.90
85798;BME280;76244;53.434;14.484;2024-03-22T11:38:01;101046.69;;;11.66;69.78
85798;BME280;76244;53.434;14.484;2024-03-22T11:40:35;101053.04;;;11.63;69.68
85798;BME280;76244;53.434;14.484;2024-03-22T11:43:07;101051.98;;;11.60;69.74
85798;BME280;76244;53.434;14.484;2024-03-22T11:45:40;101053.39;;;11.58;69.55
85798;BME280;76244;53.434;14.484;2024-03-22T11:48:13;101053.38;;;11.56;69.63
85798;BME280;76244;53.434;14.484;2024-03-22T11:50:46;101045.80;;;11.57;69.60
85798;BME280;76244;53.434;14.484;2024-03-22T11:53:18;101041.92;;;11.58;69.89
85798;BME280;76244;53.434;14.484;2024-03-22T11:55:51;101041.94;;;11.60;70.29
85798;BME280;76244;53.434;14.484;2024-03-22T11:58:25;101047.40;;;11.62;70.67
85798;BME280;76244;53.434;14.484;2024-03-22T12:00:56;101043.70;;;11.61;70.76
85798;BME280;76244;53.434;14.484;2024-03-22T12:03:49;101042.45;;;11.63;71.19
85798;BME280;76244;53.434;14.484;2024-03-22T12:06:21;101044.05;;;11.64;71.50
85798;BME280;76244;53.434;14.484;2024-03-22T12:08:53;101040.86;;;11.66;71.50
85798;BME280;76244;53.434;14.484;2024-03-22T12:11:25;101035.39;;;11.69;71.80
85798;BME280;76244;53.434;14.484;2024-03-22T12:13:57;101035.40;;;11.73;71.71
85798;BME280;76244;53.434;14.484;2024-03-22T12:16:29;101036.63;;;11.75;71.75
85798;BME280;76244;53.434;14.484;2024-03-22T12:19:00;101033.11;;;11.79;72.35
85798;BME280;76244;53.434;14.484;2024-03-22T12:21:33;101030.27;;;11.82;72.60
85798;BME280;76244;53.434;14.484;2024-03-22T12:24:08;101026.95;;;11.84;72.62
85798;BME280;76244;53.434;14.484;2024-03-22T12:26:40;101021.48;;;11.88;72.68
85798;BME280;76244;53.434;14.484;2024-03-22T12:29:16;101010.17;;;11.93;72.57
85798;BME280;76244;53.434;14.484;2024-03-22T12:31:48;100997.29;;;11.97;72.86
85798;BME280;76244;53.434;14.484;2024-03-22T12:34:20;100994.27;;;12.02;72.92
85798;BME280;76244;53.434;14.484;2024-03-22T12:36:52;100987.55;;;12.07;72.39
85798;BME280;76244;53.434;14.484;2024-03-22T12:39:25;100984.19;;;12.11;72.32
85798;BME280;76244;53.434;14.484;2024-03-22T12:41:56;100982.92;;;12.16;72.01
85798;BME280;76244;53.434;14.484;2024-03-22T12:44:28;100987.51;;;12.20;71.98
85798;BME280;76244;53.434;14.484;2024-03-22T12:47:00;100977.09;;;12.22;71.49
85798;BME280;76244;53.434;14.484;2024-03-22T12:49:32;100968.41;;;12.25;70.94
85798;BME280;76244;53.434;14.484;2024-03-22T12:52:04;100970.17;;;12.26;70.79
85798;BME280;76244;53.434;14.484;2024-03-22T12:54:37;100964.00;;;12.25;70.55
85798;BME280;76244;53.434;14.484;2024-03-22T12:57:09;100965.25;;;12.23;70.67
85798;BME280;76244;53.434;14.484;2024-03-22T12:59:41;100962.27;;;12.20;70.56
85798;BME280;76244;53.434;14.484;2024-03-22T13:02:15;100962.97;;;12.19;70.05
85798;BME280;76244;53.434;14.484;2024-03-22T13:04:47;100955.38;;;12.18;69.77
85798;BME280;76244;53.434;14.484;2024-03-22T13:07:21;100958.20;;;12.18;70.08
85798;BME280;76244;53.434;14.484;2024-03-22T13:09:53;100953.97;;;12.18;69.90
85798;BME280;76244;53.434;14.484;2024-03-22T13:12:25;100953.27;;;12.17;70.12
85798;BME280;76244;53.434;14.484;2024-03-22T13:14:57;100948.33;;;12.17;70.45